createdAt,value
2016-11-02T00:02:16.277Z,0
2016-11-02T00:07:16.532Z,0
2016-11-02T00:12:16.779Z,0
2016-11-02T00:17:16.744Z,0
2016-11-02T00:22:16.406Z,0
2016-11-02T00:27:16.641Z,0
2016-11-02T00:32:16.272Z,0
2016-11-02T00:37:16.508Z,0
2016-11-02T00:42:15.852Z,0
2016-11-02T00:47:16.415Z,0
2016-11-02T00:52:16.354Z,0
2016-11-02T00:57:16.302Z,0
2016-11-02T01:02:15.947Z,0
2016-11-02T01:07:16.191Z,0
2016-11-02T01:12:16.138Z,0
2016-11-02T01:17:15.771Z,0
2016-11-02T01:22:16.031Z,0
2016-11-02T01:27:15.673Z,0
2016-11-02T01:32:15.929Z,0
2016-11-02T01:37:15.887Z,0
2016-11-02T01:42:15.823Z,0
2016-11-02T01:47:15.463Z,0
2016-11-02T01:52:15.727Z,0
2016-11-02T01:57:15.662Z,0
2016-11-02T02:02:15.620Z,0
2016-11-02T02:07:15.595Z,0
2016-11-02T02:12:15.515Z,0
2016-11-02T02:17:15.149Z,0
2016-11-02T02:22:15.434Z,0
2016-11-02T02:27:15.352Z,0
2016-11-02T02:32:15.288Z,0
2016-11-02T02:37:15.236Z,0
2016-11-02T02:42:15.187Z,0
2016-11-02T02:47:15.125Z,0
2016-11-02T02:52:15.075Z,0
2016-11-02T02:57:15.019Z,0
2016-11-02T03:02:14.974Z,0
2016-11-02T03:07:14.904Z,0
2016-11-02T03:12:14.546Z,0
2016-11-02T03:17:14.798Z,0
2016-11-02T03:22:14.476Z,0
2016-11-02T03:27:14.389Z,0
2016-11-02T03:32:14.336Z,0
2016-11-02T03:37:14.582Z,0
2016-11-02T03:42:14.569Z,0
2016-11-02T03:47:14.468Z,0
2016-11-02T03:52:14.416Z,0
2016-11-02T03:57:14.364Z,0
2016-11-02T04:02:14.003Z,0
2016-11-02T04:07:14.254Z,0
2016-11-02T04:12:13.932Z,0
2016-11-02T04:17:13.839Z,0
2016-11-02T04:22:14.093Z,0
2016-11-02T04:27:14.044Z,0
2016-11-02T04:32:13.984Z,0
2016-11-02T04:37:13.945Z,0
2016-11-02T04:42:13.866Z,0
2016-11-02T04:47:13.511Z,0
2016-11-02T04:52:13.760Z,0
2016-11-02T04:57:13.707Z,0
2016-11-02T05:02:13.349Z,0
2016-11-02T05:07:13.599Z,0
2016-11-02T05:12:13.573Z,0
2016-11-02T05:17:13.497Z,0
2016-11-02T05:22:13.434Z,0
2016-11-02T05:27:13.387Z,0
2016-11-02T05:32:13.330Z,0
2016-11-02T05:37:13.276Z,0
2016-11-02T05:42:12.909Z,0
2016-11-02T05:47:13.157Z,0
2016-11-02T05:52:13.100Z,0
2016-11-02T05:57:13.049Z,0
2016-11-02T06:02:12.987Z,0
2016-11-02T06:07:12.927Z,0
2016-11-02T06:12:12.876Z,0
2016-11-02T06:17:12.517Z,0
2016-11-02T06:22:12.768Z,0
2016-11-02T06:27:12.401Z,0
2016-11-02T06:32:12.348Z,0
2016-11-02T06:37:12.595Z,0
2016-11-02T06:42:12.543Z,0
2016-11-02T06:47:11.878Z,0
2016-11-02T06:52:12.420Z,0
2016-11-02T06:57:12.070Z,0
2016-11-02T07:02:12.318Z,0
2016-11-02T07:07:12.256Z,0
2016-11-02T07:12:12.202Z,0
2016-11-02T07:17:11.846Z,0
2016-11-02T07:22:12.090Z,0
2016-11-02T07:27:11.734Z,0
2016-11-02T07:32:11.981Z,0
2016-11-02T07:37:11.626Z,0
2016-11-02T07:42:11.558Z,0
2016-11-02T07:47:11.504Z,0
2016-11-02T07:52:11.765Z,0
2016-11-02T07:57:11.698Z,4
2016-11-02T08:02:11.339Z,4
2016-11-02T08:07:11.584Z,36
2016-11-02T08:12:11.538Z,72
2016-11-02T08:17:11.176Z,80
2016-11-02T08:22:11.170Z,60
2016-11-02T08:27:11.374Z,48
2016-11-02T08:32:11.022Z,32
2016-11-02T08:37:10.974Z,24
2016-11-02T08:42:11.214Z,32
2016-11-02T08:47:11.158Z,28
2016-11-02T08:52:11.384Z,20
2016-11-02T08:57:10.138Z,24
2016-11-02T09:02:11.004Z,44
2016-11-02T09:07:10.646Z,40
2016-11-02T09:12:10.341Z,24
2016-11-02T09:17:10.852Z,28
2016-11-02T09:22:10.500Z,56
2016-11-02T09:27:10.450Z,76
2016-11-02T09:32:10.702Z,28
2016-11-02T09:37:10.654Z,84
2016-11-02T09:42:10.294Z,40
2016-11-02T09:47:10.245Z,36
2016-11-02T09:52:09.892Z,108
2016-11-02T09:57:10.450Z,20
2016-11-02T10:02:10.428Z,20
2016-11-02T10:07:10.028Z,32
2016-11-02T10:12:09.982Z,40
2016-11-02T10:17:09.986Z,132
2016-11-02T10:22:09.877Z,32
2016-11-02T10:27:10.138Z,116
2016-11-02T10:32:10.078Z,52
2016-11-02T10:37:10.035Z,48
2016-11-02T10:42:09.982Z,52
2016-11-02T10:47:09.318Z,24
2016-11-02T10:52:09.882Z,40
2016-11-02T10:57:09.834Z,16
2016-11-02T11:02:09.467Z,28
2016-11-02T11:07:09.723Z,24
2016-11-02T11:12:09.665Z,28
2016-11-02T11:17:09.307Z,16
2016-11-02T11:22:09.259Z,8
2016-11-02T11:27:09.235Z,8
2016-11-02T11:32:09.461Z,32
2016-11-02T11:37:09.097Z,120
2016-11-02T11:42:09.354Z,84
2016-11-02T11:47:09.007Z,144
2016-11-02T11:52:08.644Z,192
2016-11-02T11:57:09.200Z,76
2016-11-02T12:02:09.150Z,40
2016-11-02T12:07:09.118Z,20
2016-11-02T12:12:08.745Z,112
2016-11-02T12:17:08.692Z,52
2016-11-02T12:22:08.648Z,84
2016-11-02T12:27:08.616Z,92
2016-11-02T12:32:08.545Z,40
2016-11-02T12:37:08.492Z,80
2016-11-02T12:42:08.749Z,48
2016-11-02T12:47:08.692Z,36
2016-11-02T12:52:08.332Z,80
2016-11-02T12:57:08.300Z,92
2016-11-02T13:02:07.931Z,64
2016-11-02T13:07:08.188Z,200
2016-11-02T13:12:08.129Z,236
2016-11-02T13:17:08.384Z,212
2016-11-02T13:22:08.350Z,28
2016-11-02T13:27:07.976Z,108
2016-11-02T13:32:07.944Z,16
2016-11-02T13:37:07.870Z,72
2016-11-02T13:42:07.832Z,188
2016-11-02T13:47:08.082Z,360
2016-11-02T13:52:07.414Z,304
2016-11-02T13:57:07.979Z,200
2016-11-02T14:02:07.626Z,236
2016-11-02T14:07:07.567Z,196
2016-11-02T14:12:07.527Z,32
2016-11-02T14:17:07.780Z,92
2016-11-02T14:22:07.743Z,68
2016-11-02T14:27:07.390Z,112
2016-11-02T14:32:07.649Z,116
2016-11-02T14:37:07.293Z,68
2016-11-02T14:42:07.251Z,140
2016-11-02T14:47:07.504Z,48
2016-11-02T14:52:07.471Z,80
2016-11-02T14:57:07.101Z,32
2016-11-02T15:02:06.754Z,28
2016-11-02T15:07:07.309Z,32
2016-11-02T15:12:06.960Z,20
2016-11-02T15:17:06.919Z,12
2016-11-02T15:22:07.159Z,16
2016-11-02T15:27:07.126Z,12
2016-11-02T15:32:07.095Z,12
2016-11-02T15:37:06.709Z,12
2016-11-02T15:42:06.984Z,12
2016-11-02T15:47:06.603Z,8
2016-11-02T15:52:06.558Z,4
2016-11-02T15:57:06.810Z,4
2016-11-02T16:02:06.467Z,4
2016-11-02T16:07:06.722Z,4
2016-11-02T16:12:06.666Z,4
2016-11-02T16:17:06.308Z,0
2016-11-02T16:22:06.261Z,4
2016-11-02T16:27:05.912Z,0
2016-11-02T16:32:06.469Z,0
2016-11-02T16:37:06.418Z,0
2016-11-02T16:42:06.066Z,0
2016-11-02T16:47:06.008Z,4
2016-11-02T16:52:06.266Z,4
2016-11-02T16:57:05.633Z,4
2016-11-02T17:02:05.852Z,4
2016-11-02T17:07:06.103Z,4
2016-11-02T17:12:06.070Z,4
2016-11-02T17:17:05.690Z,4
2016-11-02T17:22:05.932Z,0
2016-11-02T17:27:05.878Z,0
2016-11-02T17:32:05.519Z,0
2016-11-02T17:37:05.472Z,0
2016-11-02T17:42:05.424Z,0
2016-11-02T17:47:05.393Z,0
2016-11-02T17:52:05.612Z,0
2016-11-02T17:57:05.564Z,0
2016-11-02T18:02:05.530Z,0
2016-11-02T18:07:05.192Z,0
2016-11-02T18:12:04.795Z,4
2016-11-02T18:17:05.046Z,4
2016-11-02T18:22:04.998Z,4
2016-11-02T18:27:04.937Z,4
2016-11-02T18:32:05.204Z,4
2016-11-02T18:37:05.069Z,4
2016-11-02T18:42:04.787Z,4
2016-11-02T18:47:04.726Z,4
2016-11-02T18:52:04.974Z,4
2016-11-02T18:57:04.933Z,4
2016-11-02T19:02:04.269Z,4
2016-11-02T19:07:04.827Z,4
2016-11-02T19:12:04.473Z,4
2016-11-02T19:17:04.723Z,4
2016-11-02T19:22:04.363Z,4
2016-11-02T19:27:04.607Z,4
2016-11-02T19:32:04.271Z,4
2016-11-02T19:37:04.519Z,4
2016-11-02T19:42:03.869Z,4
2016-11-02T19:47:04.493Z,4
2016-11-02T19:52:04.091Z,4
2016-11-02T19:57:04.329Z,4
2016-11-02T20:02:03.973Z,4
2016-11-02T20:07:04.234Z,4
2016-11-02T20:12:03.879Z,4
2016-11-02T20:17:03.828Z,4
2016-11-02T20:22:03.804Z,4
2016-11-02T20:27:03.737Z,4
2016-11-02T20:32:03.998Z,4
2016-11-02T20:37:03.669Z,4
2016-11-02T20:42:03.293Z,4
2016-11-02T20:47:03.572Z,4
2016-11-02T20:52:03.803Z,4
2016-11-02T20:57:03.753Z,4
2016-11-02T21:02:03.445Z,4
2016-11-02T21:07:03.357Z,4
2016-11-02T21:12:03.001Z,4
2016-11-02T21:17:03.260Z,4
2016-11-02T21:22:02.900Z,4
2016-11-02T21:27:03.163Z,4
2016-11-02T21:32:03.457Z,4
2016-11-02T21:37:03.086Z,8
2016-11-02T21:42:03.019Z,8
2016-11-02T21:47:02.971Z,8
2016-11-02T21:52:03.227Z,8
2016-11-02T21:57:02.875Z,8
2016-11-02T22:02:03.129Z,4
2016-11-02T22:07:03.081Z,4
2016-11-02T22:12:02.426Z,4
2016-11-02T22:17:02.679Z,4
2016-11-02T22:22:02.641Z,4
2016-11-02T22:27:02.273Z,4
2016-11-02T22:32:02.842Z,4
2016-11-02T22:37:02.485Z,8
2016-11-02T22:42:02.771Z,4
2016-11-02T22:47:02.691Z,4
2016-11-02T22:52:02.640Z,4
2016-11-02T22:57:02.281Z,0
2016-11-02T23:02:02.234Z,0
2016-11-02T23:07:02.495Z,0
2016-11-02T23:12:02.435Z,0
2016-11-02T23:17:02.072Z,0
2016-11-02T23:22:02.026Z,0
2016-11-02T23:27:02.270Z,0
2016-11-02T23:32:01.911Z,0
2016-11-02T23:37:02.194Z,0
2016-11-02T23:42:02.125Z,0
2016-11-02T23:47:02.062Z,0
2016-11-02T23:52:01.706Z,0
2016-11-02T23:57:01.955Z,0
